createdAt,value
2023-05-09T00:00:40.773Z,100894.98
2023-05-09T00:03:14.111Z,100897.29
2023-05-09T00:05:43.161Z,100898.98
2023-05-09T00:08:10.599Z,100892.60
2023-05-09T00:10:37.666Z,100887.81
2023-05-09T00:13:04.524Z,100889.64
2023-05-09T00:15:33.799Z,100887.08
2023-05-09T00:18:26.060Z,100880.19
2023-05-09T00:20:54.445Z,100883.60
2023-05-09T00:23:34.912Z,100878.54
2023-05-09T03:57:32.150Z,100849.88
2023-05-09T04:00:04.219Z,100853.93
2023-05-09T04:02:44.632Z,100845.11
2023-05-09T04:05:21.010Z,100838.13
2023-05-09T04:07:47.886Z,100832.07
2023-05-09T04:10:21.403Z,100827.24
2023-05-09T04:12:51.191Z,100827.67
2023-05-09T04:15:18.039Z,100827.81
2023-05-09T04:17:44.926Z,100824.24
2023-05-09T04:20:14.362Z,100828.01
2023-05-09T04:22:48.006Z,100829.54
2023-05-09T04:25:19.741Z,100835.89
2023-05-09T04:27:46.598Z,100838.52
2023-05-09T04:30:15.616Z,100839.54
2023-05-09T04:32:45.271Z,100828.80
2023-05-09T04:35:13.392Z,100828.86
2023-05-09T04:37:44.983Z,100824.95
2023-05-09T04:40:14.769Z,100827.02
2023-05-09T04:42:46.704Z,100819.44
2023-05-09T04:45:13.713Z,100820.46
2023-05-09T04:47:43.246Z,100821.32
2023-05-09T04:50:10.479Z,100822.34
2023-05-09T04:52:36.871Z,100823.61
2023-05-09T04:55:03.522Z,100825.88
2023-05-09T04:57:33.267Z,100825.36
2023-05-09T05:00:01.337Z,100825.36
2023-05-09T05:02:28.606Z,100831.58
2023-05-09T05:05:06.306Z,100829.59
2023-05-09T05:07:40.075Z,100826.24
2023-05-09T05:10:10.052Z,100833.52
2023-05-09T05:12:39.390Z,100827.60
2023-05-09T05:15:19.688Z,100818.77
2023-05-09T05:18:10.345Z,100819.30
2023-05-09T05:20:51.180Z,100817.58
2023-05-09T05:23:20.811Z,100814.58
2023-05-09T05:25:51.643Z,100799.73
2023-05-09T05:28:20.567Z,100801.67
2023-05-09T05:30:49.765Z,100799.65
2023-05-09T05:33:16.344Z,100787.71
2023-05-09T05:35:43.305Z,100780.88
2023-05-09T05:38:13.272Z,100781.48
2023-05-09T05:40:40.200Z,100783.86
2023-05-09T05:43:07.413Z,100776.94
2023-05-09T05:45:37.037Z,100777.65
2023-05-09T05:48:07.295Z,100767.63
2023-05-09T05:50:35.896Z,100767.95
2023-05-09T05:53:02.833Z,100752.71
2023-05-09T05:55:29.499Z,100746.41
2023-05-09T05:57:59.339Z,100741.25
2023-05-09T06:00:29.670Z,100738.46
2023-05-09T06:03:02.751Z,100733.80
2023-05-09T06:05:43.644Z,100734.85
2023-05-09T06:08:11.049Z,100729.45
2023-05-09T06:10:37.711Z,100728.41
2023-05-09T06:13:04.498Z,100724.58
2023-05-09T06:15:43.086Z,100725.36
2023-05-09T06:18:13.309Z,100719.75
2023-05-09T06:20:39.863Z,100710.02
2023-05-09T06:23:06.384Z,100709.14
2023-05-09T06:25:33.224Z,100704.11
2023-05-09T06:27:59.911Z,100701.00
2023-05-09T06:30:28.974Z,100705.77
2023-05-09T06:32:57.503Z,100697.89
2023-05-09T06:35:26.961Z,100702.17
2023-05-09T06:37:55.966Z,100701.16
2023-05-09T06:40:25.307Z,100698.83
2023-05-09T06:42:54.152Z,100690.61
2023-05-09T06:45:20.772Z,100690.32
2023-05-09T06:47:52.654Z,100687.78
2023-05-09T06:50:19.649Z,100679.93
2023-05-09T06:52:46.324Z,100672.45
2023-05-09T06:55:12.997Z,100664.64
2023-05-09T06:57:44.357Z,100661.79
2023-05-09T07:00:22.217Z,100659.21
2023-05-09T07:02:48.985Z,100659.05
2023-05-09T07:05:23.482Z,100660.46
2023-05-09T07:07:50.570Z,100657.48
2023-05-09T07:10:22.725Z,100653.16
2023-05-09T07:12:51.848Z,100643.34
2023-05-09T07:15:36.785Z,100646.90
2023-05-09T07:18:07.848Z,100641.41
2023-05-09T07:20:37.238Z,100637.84
2023-05-09T07:23:06.348Z,100633.52
2023-05-09T07:25:35.609Z,100635.51
2023-05-09T07:28:05.216Z,100631.52
2023-05-09T07:30:34.195Z,100628.06
2023-05-09T07:33:01.286Z,100622.92
2023-05-09T07:35:34.073Z,100621.08
2023-05-09T07:38:00.517Z,100616.45
2023-05-09T07:40:27.061Z,100611.98
2023-05-09T07:44:34.878Z,100612.74
2023-05-09T07:47:02.052Z,100605.04
2023-05-09T07:49:28.784Z,100605.13
2023-05-09T07:51:55.314Z,100599.52
2023-05-09T07:54:22.152Z,100599.53
2023-05-09T07:57:29.734Z,100592.81
2023-05-09T08:00:08.281Z,100591.27
2023-05-09T08:02:40.057Z,100586.56
2023-05-09T08:05:13.140Z,100584.10
2023-05-09T08:07:44.352Z,100580.34
2023-05-09T08:10:45.139Z,100579.17
2023-05-09T08:13:13.949Z,100578.41
2023-05-09T08:15:44.232Z,100577.83
2023-05-09T08:18:46.016Z,100573.91
2023-05-09T08:21:12.843Z,100575.48
2023-05-09T08:23:40.611Z,100572.39
2023-05-09T08:26:07.288Z,100570.10
2023-05-09T08:28:33.900Z,100564.66
2023-05-09T08:31:03.459Z,100560.24
2023-05-09T08:33:33.113Z,100562.44
2023-05-09T08:35:59.590Z,100557.09
2023-05-09T08:38:28.362Z,100548.94
2023-05-09T08:41:01.612Z,100550.91
2023-05-09T08:43:28.751Z,100546.79
2023-05-09T08:45:59.652Z,100545.64
2023-05-09T08:48:30.678Z,100544.66
2023-05-09T08:50:57.968Z,100545.88
2023-05-09T08:53:27.021Z,100539.95
2023-05-09T08:55:53.865Z,100542.45
2023-05-09T08:58:21.849Z,100536.91
2023-05-09T09:00:49.658Z,100538.04
2023-05-09T09:03:16.728Z,100548.17
2023-05-09T09:05:48.993Z,100533.89
2023-05-09T09:08:17.771Z,100528.26
2023-05-09T09:10:49.019Z,100518.95
2023-05-09T09:13:18.288Z,100523.68
2023-05-09T09:15:48.459Z,100518.73
2023-05-09T09:18:25.175Z,100518.06
2023-05-09T09:20:58.994Z,100512.13
2023-05-09T09:23:28.884Z,100504.91
2023-05-09T09:26:03.719Z,100499.82
2023-05-09T09:28:30.372Z,100511.14
2023-05-09T09:30:57.049Z,100504.91
2023-05-09T09:33:25.624Z,100512.12
2023-05-09T09:35:53.907Z,100499.91
2023-05-09T09:38:23.965Z,100489.60
2023-05-09T09:40:55.161Z,100491.31
2023-05-09T09:43:30.813Z,100503.42
2023-05-09T09:46:03.729Z,100492.59
2023-05-09T09:48:33.139Z,100495.06
2023-05-09T09:51:12.015Z,100493.50
2023-05-09T09:53:44.956Z,100486.77
2023-05-09T09:56:14.893Z,100483.29
2023-05-09T09:58:42.126Z,100491.34
2023-05-09T10:01:21.230Z,100482.30
2023-05-09T10:03:48.310Z,100481.98
2023-05-09T10:06:18.068Z,100480.44
2023-05-09T10:08:50.525Z,100481.95
2023-05-09T10:11:17.109Z,100479.81
2023-05-09T10:13:44.714Z,100474.02
2023-05-09T10:16:12.856Z,100468.79
2023-05-09T10:18:42.062Z,100469.38
2023-05-09T10:21:14.088Z,100463.23
2023-05-09T10:23:47.868Z,100451.83
2023-05-09T10:26:25.051Z,100459.65
2023-05-09T10:29:01.194Z,100458.48
2023-05-09T10:31:31.879Z,100454.48
2023-05-09T10:34:04.800Z,100445.31
2023-05-09T10:36:35.978Z,100443.27
2023-05-09T10:39:02.750Z,100436.88
2023-05-09T10:41:30.776Z,100429.73
2023-05-09T10:44:00.320Z,100428.29
2023-05-09T10:46:29.802Z,100418.52
2023-05-09T10:48:56.745Z,100416.21
2023-05-09T10:51:23.975Z,100419.90
2023-05-09T10:53:51.153Z,100411.02
2023-05-09T10:57:04.711Z,100402.63
2023-05-09T11:00:47.693Z,100398.87
2023-05-09T11:04:56.398Z,100401.36
2023-05-09T11:08:15.828Z,100393.16
2023-05-09T11:10:49.434Z,100383.80
2023-05-09T11:13:53.123Z,100390.27
2023-05-09T11:16:53.757Z,100384.94
2023-05-09T11:20:32.783Z,100379.52
2023-05-09T11:23:55.493Z,100381.37
2023-05-09T11:27:41.664Z,100380.42
2023-05-09T11:30:44.336Z,100368.65
2023-05-09T11:33:30.541Z,100359.96
2023-05-09T11:36:24.755Z,100361.45
2023-05-09T11:39:07.948Z,100353.31
2023-05-09T11:41:43.448Z,100356.58
2023-05-09T11:44:18.145Z,100354.27
2023-05-09T11:46:48.631Z,100348.97
2023-05-09T11:49:16.325Z,100342.23
2023-05-09T11:51:45.251Z,100341.31
2023-05-09T11:54:14.185Z,100338.54
2023-05-09T11:56:45.606Z,100333.65
2023-05-09T11:59:16.193Z,100335.51
2023-05-09T12:01:42.947Z,100329.79
2023-05-09T12:04:12.406Z,100328.64
2023-05-09T12:06:39.104Z,100322.31
2023-05-09T12:09:05.894Z,100318.65
2023-05-09T12:11:34.284Z,100321.20
2023-05-09T12:14:03.471Z,100316.77
2023-05-09T12:16:30.095Z,100317.23
2023-05-09T12:18:56.535Z,100309.91
2023-05-09T12:21:23.504Z,100307.11
2023-05-09T12:23:57.976Z,100302.27
2023-05-09T12:26:27.594Z,100310.08
2023-05-09T12:28:54.667Z,100296.59
2023-05-09T12:31:21.980Z,100287.25
2023-05-09T12:33:48.843Z,100294.70
2023-05-09T12:36:15.975Z,100291.15
2023-05-09T12:38:52.809Z,100288.14
2023-05-09T12:41:34.849Z,100290.52
2023-05-09T12:44:30.938Z,100290.42
2023-05-09T12:47:03.730Z,100284.54
2023-05-09T12:49:36.568Z,100274.55
2023-05-09T12:52:04.849Z,100269.14
2023-05-09T12:54:32.389Z,100265.40
2023-05-09T12:57:05.672Z,100266.46
2023-05-09T12:59:35.041Z,100263.14
2023-05-09T13:02:02.143Z,100257.20
2023-05-09T13:04:29.344Z,100256.25
2023-05-09T13:06:59.286Z,100254.83
2023-05-09T13:37:46.232Z,100217.63
2023-05-09T13:40:13.836Z,100208.70
2023-05-09T13:42:40.540Z,100201.44
2023-05-09T13:45:07.931Z,100204.16
2023-05-09T13:47:39.618Z,100206.98
2023-05-09T13:50:12.744Z,100197.27
2023-05-09T13:52:41.920Z,100189.50
2023-05-09T13:55:11.712Z,100188.35
2023-05-09T13:57:38.401Z,100190.77
2023-05-09T14:00:08.679Z,100194.42
2023-05-09T14:02:41.566Z,100193.70
2023-05-09T14:05:09.088Z,100198.66
2023-05-09T14:07:38.807Z,100196.53
2023-05-09T14:10:11.366Z,100181.58
2023-05-09T14:12:44.804Z,100177.23
2023-05-09T14:15:11.772Z,100176.66
2023-05-09T14:17:42.692Z,100171.33
2023-05-09T14:20:12.051Z,100163.27
2023-05-09T14:22:44.746Z,100167.70
2023-05-09T14:25:14.160Z,100164.70
2023-05-09T14:27:42.814Z,100159.37
2023-05-09T14:30:09.894Z,100166.14
2023-05-09T14:32:43.218Z,100160.15
2023-05-09T14:35:09.831Z,100157.92
2023-05-09T14:37:44.111Z,100159.74
2023-05-09T14:40:10.905Z,100153.34
2023-05-09T14:42:37.359Z,100152.07
2023-05-09T14:45:05.012Z,100148.19
2023-05-09T14:47:32.680Z,100142.95
2023-05-09T14:50:01.728Z,100141.52
2023-05-09T15:44:29.344Z,100072.81
2023-05-09T15:46:57.831Z,100071.25
2023-05-09T15:49:24.325Z,100072.51
2023-05-09T15:51:51.264Z,100070.85
2023-05-09T15:54:20.223Z,100071.67
2023-05-09T15:56:47.740Z,100075.85
2023-05-09T15:59:16.894Z,100068.16
2023-05-09T16:05:28.828Z,100062.19
2023-05-09T16:07:56.046Z,100059.87
2023-05-09T16:10:22.796Z,100057.98
2023-05-09T16:12:49.726Z,100060.83
2023-05-09T16:15:16.769Z,100057.40
2023-05-09T16:17:44.454Z,100050.89
2023-05-09T16:20:13.582Z,100048.55
2023-05-09T16:22:41.398Z,100047.08
2023-05-09T16:25:08.958Z,100042.68
2023-05-09T16:27:36.609Z,100038.17
2023-05-09T16:30:05.426Z,100036.90
2023-05-09T16:32:34.695Z,100036.64
2023-05-09T16:35:07.948Z,100030.14
2023-05-09T16:37:37.861Z,100025.52
2023-05-09T16:40:08.698Z,100023.52
2023-05-09T16:42:35.786Z,100029.23
2023-05-09T16:45:07.525Z,100025.55
2023-05-09T16:47:34.955Z,100029.15
2023-05-09T16:50:04.048Z,100030.96
2023-05-09T16:52:33.198Z,100025.61
2023-05-09T16:55:02.947Z,100020.25
2023-05-09T16:57:35.902Z,100016.40
2023-05-09T17:00:03.376Z,100020.08
2023-05-09T17:02:30.092Z,100018.34
2023-05-09T17:04:57.258Z,100021.51
2023-05-09T17:07:28.702Z,100017.55
2023-05-09T17:09:57.583Z,100018.65
2023-05-09T17:12:24.545Z,100014.98
2023-05-09T17:14:51.508Z,100011.71
2023-05-09T17:17:18.078Z,100016.61
2023-05-09T17:19:44.993Z,100016.24
2023-05-09T17:22:21.336Z,100019.37
2023-05-09T17:24:50.463Z,100019.24
2023-05-09T17:27:17.555Z,100015.27
2023-05-09T17:29:44.517Z,100016.06
2023-05-09T17:32:15.970Z,100013.98
2023-05-09T17:34:53.856Z,100012.42
2023-05-09T17:37:23.166Z,100014.00
2023-05-09T17:39:51.205Z,100012.56
2023-05-09T17:42:18.066Z,100014.52
2023-05-09T17:44:46.635Z,100015.20
2023-05-09T17:47:14.806Z,100015.38
2023-05-09T17:49:43.952Z,100016.55
2023-05-09T17:52:10.840Z,100016.78
2023-05-09T17:54:37.790Z,100021.64
2023-05-09T17:57:12.597Z,100026.85
2023-05-09T17:59:40.915Z,100026.46
2023-05-09T18:02:08.008Z,100025.38
2023-05-09T18:04:35.568Z,100025.88
2023-05-09T18:07:07.842Z,100026.56
2023-05-09T18:16:50.790Z,100028.46
2023-05-09T18:19:17.837Z,100026.27
2023-05-09T18:21:46.273Z,100026.48
2023-05-09T18:24:21.320Z,100027.00
2023-05-09T18:26:49.120Z,100027.05
2023-05-09T18:29:19.528Z,100027.97
2023-05-09T18:31:46.946Z,100034.42
2023-05-09T18:34:13.954Z,100032.89
2023-05-09T18:51:38.600Z,100055.49
2023-05-09T18:58:06.869Z,100051.99
2023-05-09T19:33:22.593Z,100055.33
2023-05-09T19:36:01.249Z,100056.24
2023-05-09T19:38:31.222Z,100057.46
2023-05-09T19:41:00.460Z,100056.71
2023-05-09T19:43:36.894Z,100055.27
2023-05-09T19:46:03.876Z,100050.88
2023-05-09T19:48:30.608Z,100047.08
2023-05-09T19:50:58.730Z,100048.13
2023-05-09T19:53:28.277Z,100046.61
2023-05-09T19:55:56.835Z,100051.28
2023-05-09T19:58:24.318Z,100048.39
2023-05-09T20:00:51.557Z,100050.14
2023-05-09T20:03:21.095Z,100047.68
2023-05-09T20:12:37.650Z,100050.63
2023-05-09T20:15:07.617Z,100051.88
2023-05-09T21:12:40.897Z,100053.85
2023-05-09T21:15:08.288Z,100051.48
